sensor_id;sensor_type;location;lat;lon;timestamp;temperature;humidity
59282;DHT22;45054;52.062;10.010;2023-04-24T00:02:05;12.40;99.90
59282;DHT22;45054;52.062;10.010;2023-04-24T00:04:32;12.40;99.90
59282;DHT22;45054;52.062;10.010;2023-04-24T00:06:57;12.30;99.90
59282;DHT22;45054;52.062;10.010;2023-04-24T00:09:23;12.30;99.90
59282;DHT22;45054;52.062;10.010;2023-04-24T00:11:48;12.30;99.90
59282;DHT22;45054;52.062;10.010;2023-04-24T00:14:14;12.20;99.90
59282;DHT22;45054;52.062;10.010;2023-04-24T00:16:39;12.20;99.90
59282;DHT22;45054;52.062;10.010;2023-04-24T00:19:05;12.30;99.90
59282;DHT22;45054;52.062;10.010;2023-04-24T00:21:31;12.20;99.90
59282;DHT22;45054;52.062;10.010;2023-04-24T00:23:57;12.20;99.90
59282;DHT22;45054;52.062;10.010;2023-04-24T00:26:22;12.20;99.90
59282;DHT22;45054;52.062;10.010;2023-04-24T00:28:48;12.10;99.90
59282;DHT22;45054;52.062;10.010;2023-04-24T00:31:13;12.10;99.90
59282;DHT22;45054;52.062;10.010;2023-04-24T00:33:39;12.10;99.90
59282;DHT22;45054;52.062;10.010;2023-04-24T00:36:04;12.10;99.90
59282;DHT22;45054;52.062;10.010;2023-04-24T00:38:31;12.20;99.90
59282;DHT22;45054;52.062;10.010;2023-04-24T00:40:57;12.10;99.90
59282;DHT22;45054;52.062;10.010;2023-04-24T00:43:22;12.10;99.90
59282;DHT22;45054;52.062;10.010;2023-04-24T00:45:47;12.10;99.90
59282;DHT22;45054;52.062;10.010;2023-04-24T00:48:13;12.10;99.90
59282;DHT22;45054;52.062;10.010;2023-04-24T00:50:39;12.10;99.90
59282;DHT22;45054;52.062;10.010;2023-04-24T00:53:05;12.00;99.90
59282;DHT22;45054;52.062;10.010;2023-04-24T00:55:31;11.90;99.90
59282;DHT22;45054;52.062;10.010;2023-04-24T00:58:00;11.90;99.90
59282;DHT22;45054;52.062;10.010;2023-04-24T01:00:25;11.80;99.90
59282;DHT22;45054;52.062;10.010;2023-04-24T01:02:53;11.80;99.90
59282;DHT22;45054;52.062;10.010;2023-04-24T01:05:18;11.80;99.90
59282;DHT22;45054;52.062;10.010;2023-04-24T01:07:44;11.70;99.90
59282;DHT22;45054;52.062;10.010;2023-04-24T01:10:10;11.70;99.90
59282;DHT22;45054;52.062;10.010;2023-04-24T01:12:37;11.70;99.90
59282;DHT22;45054;52.062;10.010;2023-04-24T01:15:03;11.70;99.90
59282;DHT22;45054;52.062;10.010;2023-04-24T01:17:29;11.60;99.90
59282;DHT22;45054;52.062;10.010;2023-04-24T01:19:54;11.60;99.90
59282;DHT22;45054;52.062;10.010;2023-04-24T01:22:21;11.60;99.90
59282;DHT22;45054;52.062;10.010;2023-04-24T01:24:47;11.50;99.90
59282;DHT22;45054;52.062;10.010;2023-04-24T01:27:12;11.50;99.90
59282;DHT22;45054;52.062;10.010;2023-04-24T01:29:38;11.50;99.90
59282;DHT22;45054;52.062;10.010;2023-04-24T01:32:04;11.50;99.90
59282;DHT22;45054;52.062;10.010;2023-04-24T01:34:30;11.50;99.90
59282;DHT22;45054;52.062;10.010;2023-04-24T01:36:55;11.50;99.90
59282;DHT22;45054;52.062;10.010;2023-04-24T01:39:22;11.50;99.90
59282;DHT22;45054;52.062;10.010;2023-04-24T01:41:47;11.50;99.90
59282;DHT22;45054;52.062;10.010;2023-04-24T01:44:13;11.50;99.90
59282;DHT22;45054;52.062;10.010;2023-04-24T01:46:38;11.50;99.90
59282;DHT22;45054;52.062;10.010;2023-04-24T01:49:04;11.40;99.90
59282;DHT22;45054;52.062;10.010;2023-04-24T01:51:29;11.40;99.90
59282;DHT22;45054;52.062;10.010;2023-04-24T01:53:55;11.40;99.90
59282;DHT22;45054;52.062;10.010;2023-04-24T01:56:22;11.40;99.90
59282;DHT22;45054;52.062;10.010;2023-04-24T01:58:47;11.40;99.90
59282;DHT22;45054;52.062;10.010;2023-04-24T02:01:14;11.40;99.90
59282;DHT22;45054;52.062;10.010;2023-04-24T02:03:40;11.40;99.90
59282;DHT22;45054;52.062;10.010;2023-04-24T02:06:05;11.40;99.90
59282;DHT22;45054;52.062;10.010;2023-04-24T02:08:31;11.40;99.90
59282;DHT22;45054;52.062;10.010;2023-04-24T02:10:56;11.30;99.90
59282;DHT22;45054;52.062;10.010;2023-04-24T02:13:26;11.30;99.90
59282;DHT22;45054;52.062;10.010;2023-04-24T02:15:51;11.30;99.90
59282;DHT22;45054;52.062;10.010;2023-04-24T02:18:17;11.30;99.90
59282;DHT22;45054;52.062;10.010;2023-04-24T02:20:42;11.20;99.90
59282;DHT22;45054;52.062;10.010;2023-04-24T02:23:08;11.20;99.90
59282;DHT22;45054;52.062;10.010;2023-04-24T02:25:33;11.20;99.90
59282;DHT22;45054;52.062;10.010;2023-04-24T02:27:59;11.20;99.90
59282;DHT22;45054;52.062;10.010;2023-04-24T02:30:25;11.10;99.90
59282;DHT22;45054;52.062;10.010;2023-04-24T02:32:51;11.20;99.90
59282;DHT22;45054;52.062;10.010;2023-04-24T02:35:16;11.10;99.90
59282;DHT22;45054;52.062;10.010;2023-04-24T02:37:42;11.00;99.90
59282;DHT22;45054;52.062;10.010;2023-04-24T02:40:08;11.00;99.90
59282;DHT22;45054;52.062;10.010;2023-04-24T02:42:33;11.00;99.90
59282;DHT22;45054;52.062;10.010;2023-04-24T02:44:59;10.90;99.90
59282;DHT22;45054;52.062;10.010;2023-04-24T02:47:26;10.90;99.90
59282;DHT22;45054;52.062;10.010;2023-04-24T02:49:51;10.90;99.90
59282;DHT22;45054;52.062;10.010;2023-04-24T02:52:17;10.80;99.90
59282;DHT22;45054;52.062;10.010;2023-04-24T02:54:42;10.80;99.90
59282;DHT22;45054;52.062;10.010;2023-04-24T02:57:08;10.80;99.90
59282;DHT22;45054;52.062;10.010;2023-04-24T02:59:33;10.70;99.90
59282;DHT22;45054;52.062;10.010;2023-04-24T03:01:59;10.80;99.90
59282;DHT22;45054;52.062;10.010;2023-04-24T03:04:25;10.80;99.90
59282;DHT22;45054;52.062;10.010;2023-04-24T03:06:51;10.80;99.90
59282;DHT22;45054;52.062;10.010;2023-04-24T03:09:16;10.70;99.90
59282;DHT22;45054;52.062;10.010;2023-04-24T03:11:42;10.80;99.90
59282;DHT22;45054;52.062;10.010;2023-04-24T03:14:07;10.70;99.90
59282;DHT22;45054;52.062;10.010;2023-04-24T03:16:33;10.70;99.90
59282;DHT22;45054;52.062;10.010;2023-04-24T03:18:58;10.70;99.90
59282;DHT22;45054;52.062;10.010;2023-04-24T03:21:25;10.60;99.90
59282;DHT22;45054;52.062;10.010;2023-04-24T03:23:50;10.60;99.90
59282;DHT22;45054;52.062;10.010;2023-04-24T03:26:16;10.60;99.90
59282;DHT22;45054;52.062;10.010;2023-04-24T03:28:41;10.50;99.90
59282;DHT22;45054;52.062;10.010;2023-04-24T03:31:07;10.50;99.90
59282;DHT22;45054;52.062;10.010;2023-04-24T03:33:32;10.50;99.90
59282;DHT22;45054;52.062;10.010;2023-04-24T03:35:57;10.50;99.90
59282;DHT22;45054;52.062;10.010;2023-04-24T03:38:24;10.50;99.90
59282;DHT22;45054;52.062;10.010;2023-04-24T03:40:50;10.40;99.90
59282;DHT22;45054;52.062;10.010;2023-04-24T03:43:15;10.20;99.90
59282;DHT22;45054;52.062;10.010;2023-04-24T03:45:41;10.20;99.90
59282;DHT22;45054;52.062;10.010;2023-04-24T03:48:06;10.20;99.90
59282;DHT22;45054;52.062;10.010;2023-04-24T03:50:32;10.10;99.90
59282;DHT22;45054;52.062;10.010;2023-04-24T03:52:57;10.10;99.90
59282;DHT22;45054;52.062;10.010;2023-04-24T03:55:24;10.20;99.90
59282;DHT22;45054;52.062;10.010;2023-04-24T03:57:49;10.20;99.90
59282;DHT22;45054;52.062;10.010;2023-04-24T04:00:15;10.10;99.90
59282;DHT22;45054;52.062;10.010;2023-04-24T04:02:40;10.10;99.90
59282;DHT22;45054;52.062;10.010;2023-04-24T04:05:06;10.10;99.90
59282;DHT22;45054;52.062;10.010;2023-04-24T04:07:31;10.00;99.90
59282;DHT22;45054;52.062;10.010;2023-04-24T04:09:57;10.10;99.90
59282;DHT22;45054;52.062;10.010;2023-04-24T04:12:24;10.10;99.90
59282;DHT22;45054;52.062;10.010;2023-04-24T04:14:52;10.10;99.90
59282;DHT22;45054;52.062;10.010;2023-04-24T04:17:18;10.20;99.90
59282;DHT22;45054;52.062;10.010;2023-04-24T04:19:43;10.20;99.90
59282;DHT22;45054;52.062;10.010;2023-04-24T04:22:09;10.20;99.90
59282;DHT22;45054;52.062;10.010;2023-04-24T04:24:34;10.30;99.90
59282;DHT22;45054;52.062;10.010;2023-04-24T04:27:00;10.30;99.90
59282;DHT22;45054;52.062;10.010;2023-04-24T04:29:26;10.40;99.90
59282;DHT22;45054;52.062;10.010;2023-04-24T04:31:52;10.40;99.90
59282;DHT22;45054;52.062;10.010;2023-04-24T04:34:17;10.40;99.90
59282;DHT22;45054;52.062;10.010;2023-04-24T04:36:43;10.40;99.90
59282;DHT22;45054;52.062;10.010;2023-04-24T04:39:08;10.40;99.90
59282;DHT22;45054;52.062;10.010;2023-04-24T04:41:34;10.50;99.90
59282;DHT22;45054;52.062;10.010;2023-04-24T04:43:59;10.60;99.90
59282;DHT22;45054;52.062;10.010;2023-04-24T04:46:26;10.60;99.90
59282;DHT22;45054;52.062;10.010;2023-04-24T04:48:51;10.70;99.90
59282;DHT22;45054;52.062;10.010;2023-04-24T04:51:17;10.70;99.90
59282;DHT22;45054;52.062;10.010;2023-04-24T04:53:42;10.80;99.90
59282;DHT22;45054;52.062;10.010;2023-04-24T04:56:08;10.90;99.90
59282;DHT22;45054;52.062;10.010;2023-04-24T04:58:33;10.90;99.90
59282;DHT22;45054;52.062;10.010;2023-04-24T05:00:59;11.00;99.90
59282;DHT22;45054;52.062;10.010;2023-04-24T05:03:25;11.00;99.90
59282;DHT22;45054;52.062;10.010;2023-04-24T05:05:51;11.10;99.90
59282;DHT22;45054;52.062;10.010;2023-04-24T05:08:16;11.10;99.90
59282;DHT22;45054;52.062;10.010;2023-04-24T05:10:42;11.10;99.90
59282;DHT22;45054;52.062;10.010;2023-04-24T05:13:07;11.10;99.90
59282;DHT22;45054;52.062;10.010;2023-04-24T05:15:33;11.20;99.90
59282;DHT22;45054;52.062;10.010;2023-04-24T05:17:58;11.20;99.90
59282;DHT22;45054;52.062;10.010;2023-04-24T05:20:25;11.20;99.90
59282;DHT22;45054;52.062;10.010;2023-04-24T05:22:50;11.10;99.90
59282;DHT22;45054;52.062;10.010;2023-04-24T05:25:16;11.10;99.90
59282;DHT22;45054;52.062;10.010;2023-04-24T05:27:41;11.10;99.90
59282;DHT22;45054;52.062;10.010;2023-04-24T05:30:07;11.20;99.90
59282;DHT22;45054;52.062;10.010;2023-04-24T05:32:33;11.20;99.90
59282;DHT22;45054;52.062;10.010;2023-04-24T05:34:58;11.20;99.90
59282;DHT22;45054;52.062;10.010;2023-04-24T05:37:25;11.20;99.90
59282;DHT22;45054;52.062;10.010;2023-04-24T05:39:50;11.20;99.90
59282;DHT22;45054;52.062;10.010;2023-04-24T05:42:16;11.30;99.90
59282;DHT22;45054;52.062;10.010;2023-04-24T05:44:41;11.30;99.90
59282;DHT22;45054;52.062;10.010;2023-04-24T05:47:07;11.30;99.90
59282;DHT22;45054;52.062;10.010;2023-04-24T05:49:32;11.40;99.90
59282;DHT22;45054;52.062;10.010;2023-04-24T05:51:57;11.40;99.90
59282;DHT22;45054;52.062;10.010;2023-04-24T05:54:24;11.40;99.90
59282;DHT22;45054;52.062;10.010;2023-04-24T05:56:50;11.40;99.90
59282;DHT22;45054;52.062;10.010;2023-04-24T05:59:15;11.50;99.90
59282;DHT22;45054;52.062;10.010;2023-04-24T06:01:41;11.40;99.90
59282;DHT22;45054;52.062;10.010;2023-04-24T06:04:06;11.40;99.90
59282;DHT22;45054;52.062;10.010;2023-04-24T06:06:31;11.50;99.90
59282;DHT22;45054;52.062;10.010;2023-04-24T06:09:00;11.50;99.90
59282;DHT22;45054;52.062;10.010;2023-04-24T06:11:27;11.60;99.90
59282;DHT22;45054;52.062;10.010;2023-04-24T06:13:52;11.70;99.90
59282;DHT22;45054;52.062;10.010;2023-04-24T06:16:17;11.70;99.90
59282;DHT22;45054;52.062;10.010;2023-04-24T06:18:43;11.80;99.90
59282;DHT22;45054;52.062;10.010;2023-04-24T06:21:08;11.80;99.90
59282;DHT22;45054;52.062;10.010;2023-04-24T06:23:34;11.80;99.90
59282;DHT22;45054;52.062;10.010;2023-04-24T06:25:59;11.80;99.90
59282;DHT22;45054;52.062;10.010;2023-04-24T06:28:26;11.70;99.90
59282;DHT22;45054;52.062;10.010;2023-04-24T06:30:51;11.80;99.90
59282;DHT22;45054;52.062;10.010;2023-04-24T06:33:17;11.70;99.90
59282;DHT22;45054;52.062;10.010;2023-04-24T06:35:42;11.70;99.90
59282;DHT22;45054;52.062;10.010;2023-04-24T06:38:08;11.80;99.90
59282;DHT22;45054;52.062;10.010;2023-04-24T06:40:33;11.70;99.90
59282;DHT22;45054;52.062;10.010;2023-04-24T06:42:58;11.50;99.90
59282;DHT22;45054;52.062;10.010;2023-04-24T06:45:25;11.20;99.90
59282;DHT22;45054;52.062;10.010;2023-04-24T06:47:51;10.90;99.90
59282;DHT22;45054;52.062;10.010;2023-04-24T06:50:16;10.90;99.90
59282;DHT22;45054;52.062;10.010;2023-04-24T06:52:42;10.90;99.90
59282;DHT22;45054;52.062;10.010;2023-04-24T06:55:07;11.00;99.90
59282;DHT22;45054;52.062;10.010;2023-04-24T06:57:33;11.00;99.90
59282;DHT22;45054;52.062;10.010;2023-04-24T06:59:58;11.10;99.90
59282;DHT22;45054;52.062;10.010;2023-04-24T07:02:25;11.20;99.90
59282;DHT22;45054;52.062;10.010;2023-04-24T07:04:51;11.30;99.90
59282;DHT22;45054;52.062;10.010;2023-04-24T07:07:16;11.40;99.90
59282;DHT22;45054;52.062;10.010;2023-04-24T07:09:42;11.50;99.90
59282;DHT22;45054;52.062;10.010;2023-04-24T07:12:07;11.50;99.90
59282;DHT22;45054;52.062;10.010;2023-04-24T07:14:33;11.40;99.90
59282;DHT22;45054;52.062;10.010;2023-04-24T07:16:58;11.50;99.90
59282;DHT22;45054;52.062;10.010;2023-04-24T07:19:25;11.50;99.90
59282;DHT22;45054;52.062;10.010;2023-04-24T07:21:50;11.50;99.90
59282;DHT22;45054;52.062;10.010;2023-04-24T07:24:16;11.50;99.90
59282;DHT22;45054;52.062;10.010;2023-04-24T07:26:41;11.60;99.90
59282;DHT22;45054;52.062;10.010;2023-04-24T07:29:07;11.60;99.90
59282;DHT22;45054;52.062;10.010;2023-04-24T07:31:32;11.60;99.90
59282;DHT22;45054;52.062;10.010;2023-04-24T07:33:58;11.50;99.90
59282;DHT22;45054;52.062;10.010;2023-04-24T07:36:27;11.50;99.90
59282;DHT22;45054;52.062;10.010;2023-04-24T07:38:53;11.50;99.90
59282;DHT22;45054;52.062;10.010;2023-04-24T07:41:18;11.50;99.90
59282;DHT22;45054;52.062;10.010;2023-04-24T07:43:44;11.60;99.90
59282;DHT22;45054;52.062;10.010;2023-04-24T07:46:09;11.70;99.90
59282;DHT22;45054;52.062;10.010;2023-04-24T07:48:35;11.80;99.90
59282;DHT22;45054;52.062;10.010;2023-04-24T07:51:01;11.80;99.90
59282;DHT22;45054;52.062;10.010;2023-04-24T07:53:28;11.80;99.90
59282;DHT22;45054;52.062;10.010;2023-04-24T07:55:53;11.90;99.90
59282;DHT22;45054;52.062;10.010;2023-04-24T07:58:19;12.00;99.90
59282;DHT22;45054;52.062;10.010;2023-04-24T08:00:44;12.00;99.90
59282;DHT22;45054;52.062;10.010;2023-04-24T08:03:10;12.00;99.90
59282;DHT22;45054;52.062;10.010;2023-04-24T08:05:35;12.00;99.90
59282;DHT22;45054;52.062;10.010;2023-04-24T08:08:01;12.10;99.90
59282;DHT22;45054;52.062;10.010;2023-04-24T08:10:27;12.10;99.90
59282;DHT22;45054;52.062;10.010;2023-04-24T08:12:53;12.10;99.90
59282;DHT22;45054;52.062;10.010;2023-04-24T08:15:18;12.00;99.90
59282;DHT22;45054;52.062;10.010;2023-04-24T08:17:44;12.00;99.90
59282;DHT22;45054;52.062;10.010;2023-04-24T08:20:10;12.00;99.90
59282;DHT22;45054;52.062;10.010;2023-04-24T08:22:36;12.10;99.90
59282;DHT22;45054;52.062;10.010;2023-04-24T08:25:01;12.10;99.90
59282;DHT22;45054;52.062;10.010;2023-04-24T08:27:28;12.20;99.90
59282;DHT22;45054;52.062;10.010;2023-04-24T08:29:53;12.40;99.90
59282;DHT22;45054;52.062;10.010;2023-04-24T08:32:19;12.50;99.90
59282;DHT22;45054;52.062;10.010;2023-04-24T08:34:44;12.60;99.90
59282;DHT22;45054;52.062;10.010;2023-04-24T08:37:10;12.80;99.90
59282;DHT22;45054;52.062;10.010;2023-04-24T08:39:36;12.80;99.90
59282;DHT22;45054;52.062;10.010;2023-04-24T08:42:01;12.70;99.90
59282;DHT22;45054;52.062;10.010;2023-04-24T08:44:28;12.60;99.90
59282;DHT22;45054;52.062;10.010;2023-04-24T08:46:54;12.50;99.90
59282;DHT22;45054;52.062;10.010;2023-04-24T08:49:19;12.50;99.90
59282;DHT22;45054;52.062;10.010;2023-04-24T08:51:45;12.40;99.90
59282;DHT22;45054;52.062;10.010;2023-04-24T08:54:11;12.30;99.90
59282;DHT22;45054;52.062;10.010;2023-04-24T08:56:37;12.20;99.90
59282;DHT22;45054;52.062;10.010;2023-04-24T08:59:04;12.20;99.90
59282;DHT22;45054;52.062;10.010;2023-04-24T09:01:31;12.10;99.90
59282;DHT22;45054;52.062;10.010;2023-04-24T09:03:57;12.10;99.90
59282;DHT22;45054;52.062;10.010;2023-04-24T09:06:22;12.10;99.90
59282;DHT22;45054;52.062;10.010;2023-04-24T09:08:48;12.00;99.90
59282;DHT22;45054;52.062;10.010;2023-04-24T09:11:15;12.00;99.90
59282;DHT22;45054;52.062;10.010;2023-04-24T09:13:40;12.00;99.90
59282;DHT22;45054;52.062;10.010;2023-04-24T09:16:06;12.30;99.90
59282;DHT22;45054;52.062;10.010;2023-04-24T09:18:33;12.40;99.90
59282;DHT22;45054;52.062;10.010;2023-04-24T09:20:59;12.50;99.90
59282;DHT22;45054;52.062;10.010;2023-04-24T09:23:25;12.60;99.90
59282;DHT22;45054;52.062;10.010;2023-04-24T09:25:55;12.60;99.90
59282;DHT22;45054;52.062;10.010;2023-04-24T09:28:24;12.50;99.90
59282;DHT22;45054;52.062;10.010;2023-04-24T09:31:01;12.40;99.90
59282;DHT22;45054;52.062;10.010;2023-04-24T09:33:26;12.50;99.90
59282;DHT22;45054;52.062;10.010;2023-04-24T09:35:53;12.40;99.90
59282;DHT22;45054;52.062;10.010;2023-04-24T09:38:19;12.50;99.90
59282;DHT22;45054;52.062;10.010;2023-04-24T09:40:45;12.50;99.90
59282;DHT22;45054;52.062;10.010;2023-04-24T09:43:11;12.50;99.90
59282;DHT22;45054;52.062;10.010;2023-04-24T09:45:37;12.50;99.90
59282;DHT22;45054;52.062;10.010;2023-04-24T09:48:02;12.40;99.90
59282;DHT22;45054;52.062;10.010;2023-04-24T09:50:29;12.30;99.90
59282;DHT22;45054;52.062;10.010;2023-04-24T09:52:57;12.20;99.90
59282;DHT22;45054;52.062;10.010;2023-04-24T09:55:23;12.10;99.90
59282;DHT22;45054;52.062;10.010;2023-04-24T09:57:49;12.10;99.90
59282;DHT22;45054;52.062;10.010;2023-04-24T10:00:20;12.10;99.90
59282;DHT22;45054;52.062;10.010;2023-04-24T10:02:49;12.10;99.90
59282;DHT22;45054;52.062;10.010;2023-04-24T10:05:15;12.10;99.90
59282;DHT22;45054;52.062;10.010;2023-04-24T10:07:40;12.20;99.90
59282;DHT22;45054;52.062;10.010;2023-04-24T10:10:07;12.30;99.90
59282;DHT22;45054;52.062;10.010;2023-04-24T10:12:33;12.40;99.90
59282;DHT22;45054;52.062;10.010;2023-04-24T10:14:59;12.30;99.90
59282;DHT22;45054;52.062;10.010;2023-04-24T10:17:24;12.20;99.90
59282;DHT22;45054;52.062;10.010;2023-04-24T10:19:50;12.10;99.90
59282;DHT22;45054;52.062;10.010;2023-04-24T10:22:16;12.00;99.90
59282;DHT22;45054;52.062;10.010;2023-04-24T10:24:42;11.80;99.90
59282;DHT22;45054;52.062;10.010;2023-04-24T10:27:10;11.80;99.90
59282;DHT22;45054;52.062;10.010;2023-04-24T10:29:36;11.70;99.90
59282;DHT22;45054;52.062;10.010;2023-04-24T10:32:03;11.70;99.90
59282;DHT22;45054;52.062;10.010;2023-04-24T10:34:28;11.80;99.90
59282;DHT22;45054;52.062;10.010;2023-04-24T10:36:54;11.80;99.90
59282;DHT22;45054;52.062;10.010;2023-04-24T10:39:20;12.00;99.90
59282;DHT22;45054;52.062;10.010;2023-04-24T10:41:46;12.00;99.90
59282;DHT22;45054;52.062;10.010;2023-04-24T10:44:15;12.10;99.90
59282;DHT22;45054;52.062;10.010;2023-04-24T10:46:42;12.30;99.90
59282;DHT22;45054;52.062;10.010;2023-04-24T10:49:08;12.30;99.90
59282;DHT22;45054;52.062;10.010;2023-04-24T10:51:46;12.30;99.90
59282;DHT22;45054;52.062;10.010;2023-04-24T10:54:22;12.30;99.90
59282;DHT22;45054;52.062;10.010;2023-04-24T10:56:47;12.20;99.90
59282;DHT22;45054;52.062;10.010;2023-04-24T10:59:14;12.10;99.90
59282;DHT22;45054;52.062;10.010;2023-04-24T11:01:52;12.10;99.90
59282;DHT22;45054;52.062;10.010;2023-04-24T11:04:21;12.00;99.90
59282;DHT22;45054;52.062;10.010;2023-04-24T11:06:53;12.00;99.90
59282;DHT22;45054;52.062;10.010;2023-04-24T11:09:19;11.90;99.90
59282;DHT22;45054;52.062;10.010;2023-04-24T11:11:46;11.90;99.90
59282;DHT22;45054;52.062;10.010;2023-04-24T11:14:14;12.00;99.90
59282;DHT22;45054;52.062;10.010;2023-04-24T11:16:43;12.10;99.90
59282;DHT22;45054;52.062;10.010;2023-04-24T11:19:09;12.30;99.90
59282;DHT22;45054;52.062;10.010;2023-04-24T11:21:41;12.30;99.90
59282;DHT22;45054;52.062;10.010;2023-04-24T11:24:23;12.40;99.90
59282;DHT22;45054;52.062;10.010;2023-04-24T11:26:48;12.30;99.90
59282;DHT22;45054;52.062;10.010;2023-04-24T11:29:17;12.40;99.90
59282;DHT22;45054;52.062;10.010;2023-04-24T11:31:44;12.40;99.90
59282;DHT22;45054;52.062;10.010;2023-04-24T11:34:10;12.30;99.90
59282;DHT22;45054;52.062;10.010;2023-04-24T11:36:36;12.30;99.90
59282;DHT22;45054;52.062;10.010;2023-04-24T11:39:02;12.30;99.90
59282;DHT22;45054;52.062;10.010;2023-04-24T11:41:27;12.10;99.90
59282;DHT22;45054;52.062;10.010;2023-04-24T11:43:53;11.90;99.90
59282;DHT22;45054;52.062;10.010;2023-04-24T11:46:21;12.00;99.90
59282;DHT22;45054;52.062;10.010;2023-04-24T11:48:47;12.10;99.90
59282;DHT22;45054;52.062;10.010;2023-04-24T11:51:12;11.90;99.90
59282;DHT22;45054;52.062;10.010;2023-04-24T11:53:38;11.80;99.90
59282;DHT22;45054;52.062;10.010;2023-04-24T11:56:03;11.60;99.90
59282;DHT22;45054;52.062;10.010;2023-04-24T11:58:34;11.40;99.90
59282;DHT22;45054;52.062;10.010;2023-04-24T12:00:59;11.40;99.90
59282;DHT22;45054;52.062;10.010;2023-04-24T12:03:26;11.60;99.90
59282;DHT22;45054;52.062;10.010;2023-04-24T12:05:52;11.90;99.90
59282;DHT22;45054;52.062;10.010;2023-04-24T12:08:26;12.00;99.90
59282;DHT22;45054;52.062;10.010;2023-04-24T12:10:52;11.90;99.90
59282;DHT22;45054;52.062;10.010;2023-04-24T12:13:17;12.00;99.90
59282;DHT22;45054;52.062;10.010;2023-04-24T12:15:43;11.90;99.90
59282;DHT22;45054;52.062;10.010;2023-04-24T12:18:08;11.80;99.90
59282;DHT22;45054;52.062;10.010;2023-04-24T12:20:40;11.70;99.90
59282;DHT22;45054;52.062;10.010;2023-04-24T12:23:05;11.80;99.90
59282;DHT22;45054;52.062;10.010;2023-04-24T12:25:31;11.80;99.90
59282;DHT22;45054;52.062;10.010;2023-04-24T12:28:08;11.80;99.90
59282;DHT22;45054;52.062;10.010;2023-04-24T12:30:34;11.70;99.90
59282;DHT22;45054;52.062;10.010;2023-04-24T12:33:00;11.70;99.90
59282;DHT22;45054;52.062;10.010;2023-04-24T12:35:26;11.60;99.90
59282;DHT22;45054;52.062;10.010;2023-04-24T12:37:53;11.50;99.90
59282;DHT22;45054;52.062;10.010;2023-04-24T12:40:19;11.40;99.90
59282;DHT22;45054;52.062;10.010;2023-04-24T12:42:45;11.40;99.90
59282;DHT22;45054;52.062;10.010;2023-04-24T12:45:11;11.40;99.90
59282;DHT22;45054;52.062;10.010;2023-04-24T12:47:37;11.30;99.90
59282;DHT22;45054;52.062;10.010;2023-04-24T12:50:03;11.00;99.90
59282;DHT22;45054;52.062;10.010;2023-04-24T12:52:29;10.70;99.90
59282;DHT22;45054;52.062;10.010;2023-04-24T12:54:57;10.80;99.90
59282;DHT22;45054;52.062;10.010;2023-04-24T12:57:23;10.90;99.90
59282;DHT22;45054;52.062;10.010;2023-04-24T12:59:48;10.90;99.90
59282;DHT22;45054;52.062;10.010;2023-04-24T13:02:14;10.90;99.90
59282;DHT22;45054;52.062;10.010;2023-04-24T13:04:39;11.00;99.90
59282;DHT22;45054;52.062;10.010;2023-04-24T13:07:05;11.20;99.90
59282;DHT22;45054;52.062;10.010;2023-04-24T13:09:31;11.30;99.90
59282;DHT22;45054;52.062;10.010;2023-04-24T13:11:57;11.40;99.90
59282;DHT22;45054;52.062;10.010;2023-04-24T13:14:25;11.40;99.90
59282;DHT22;45054;52.062;10.010;2023-04-24T13:16:50;11.20;99.90
59282;DHT22;45054;52.062;10.010;2023-04-24T13:19:16;10.90;99.90
59282;DHT22;45054;52.062;10.010;2023-04-24T13:21:41;10.70;99.90
59282;DHT22;45054;52.062;10.010;2023-04-24T13:24:06;10.80;99.90
59282;DHT22;45054;52.062;10.010;2023-04-24T13:26:32;10.90;99.90
59282;DHT22;45054;52.062;10.010;2023-04-24T13:28:59;10.90;99.90
59282;DHT22;45054;52.062;10.010;2023-04-24T13:31:24;10.80;99.90
59282;DHT22;45054;52.062;10.010;2023-04-24T13:33:49;10.80;99.90
59282;DHT22;45054;52.062;10.010;2023-04-24T13:36:15;10.80;99.90
59282;DHT22;45054;52.062;10.010;2023-04-24T13:38:40;10.90;99.90
59282;DHT22;45054;52.062;10.010;2023-04-24T13:41:06;10.80;99.90
59282;DHT22;45054;52.062;10.010;2023-04-24T13:43:31;10.60;99.90
59282;DHT22;45054;52.062;10.010;2023-04-24T13:45:58;10.40;99.90
59282;DHT22;45054;52.062;10.010;2023-04-24T13:48:24;10.50;99.90
59282;DHT22;45054;52.062;10.010;2023-04-24T13:50:51;10.70;99.90
59282;DHT22;45054;52.062;10.010;2023-04-24T13:53:17;10.80;99.90
59282;DHT22;45054;52.062;10.010;2023-04-24T13:55:42;10.70;99.90
59282;DHT22;45054;52.062;10.010;2023-04-24T13:58:08;10.50;99.90
59282;DHT22;45054;52.062;10.010;2023-04-24T14:00:33;10.40;99.90
59282;DHT22;45054;52.062;10.010;2023-04-24T14:03:00;10.30;99.90
59282;DHT22;45054;52.062;10.010;2023-04-24T14:05:25;10.30;99.90
59282;DHT22;45054;52.062;10.010;2023-04-24T14:07:51;10.30;99.90
59282;DHT22;45054;52.062;10.010;2023-04-24T14:10:16;10.60;99.90
59282;DHT22;45054;52.062;10.010;2023-04-24T14:12:42;10.50;99.90
59282;DHT22;45054;52.062;10.010;2023-04-24T14:15:08;10.50;99.90
59282;DHT22;45054;52.062;10.010;2023-04-24T14:17:33;10.60;99.90
59282;DHT22;45054;52.062;10.010;2023-04-24T14:20:00;10.40;99.90
59282;DHT22;45054;52.062;10.010;2023-04-24T14:22:25;10.20;99.90
59282;DHT22;45054;52.062;10.010;2023-04-24T14:24:51;10.00;99.90
59282;DHT22;45054;52.062;10.010;2023-04-24T14:27:17;9.80;99.90
59282;DHT22;45054;52.062;10.010;2023-04-24T14:29:42;9.80;99.90
59282;DHT22;45054;52.062;10.010;2023-04-24T14:32:08;9.80;99.90
59282;DHT22;45054;52.062;10.010;2023-04-24T14:34:33;9.90;99.90
59282;DHT22;45054;52.062;10.010;2023-04-24T14:37:00;9.90;99.90
59282;DHT22;45054;52.062;10.010;2023-04-24T14:39:26;10.00;99.90
59282;DHT22;45054;52.062;10.010;2023-04-24T14:41:51;9.80;99.90
59282;DHT22;45054;52.062;10.010;2023-04-24T14:44:17;9.60;99.90
59282;DHT22;45054;52.062;10.010;2023-04-24T14:46:42;9.60;99.90
59282;DHT22;45054;52.062;10.010;2023-04-24T14:49:07;9.60;99.90
59282;DHT22;45054;52.062;10.010;2023-04-24T14:51:33;9.60;99.90
59282;DHT22;45054;52.062;10.010;2023-04-24T14:54:02;9.60;99.90
59282;DHT22;45054;52.062;10.010;2023-04-24T14:56:28;9.60;99.90
59282;DHT22;45054;52.062;10.010;2023-04-24T14:58:54;9.70;99.90
59282;DHT22;45054;52.062;10.010;2023-04-24T15:01:19;9.70;99.90
59282;DHT22;45054;52.062;10.010;2023-04-24T15:03:45;9.50;99.90
59282;DHT22;45054;52.062;10.010;2023-04-24T15:06:11;9.50;99.90
59282;DHT22;45054;52.062;10.010;2023-04-24T15:08:36;9.60;99.90
59282;DHT22;45054;52.062;10.010;2023-04-24T15:11:06;9.60;99.90